Terminal Aerodrome Forecast
Issued by NWS North Platte, NE

Home | Current Version | Previous Version | Text Only | Print | Product List | Glossary On
Versions: 1 2 3 4 5 6 7 8 9 10 11 12 13 14 15 16 17 18 19 20 21
000
FTUS43 KLBF 272300
TAFLBF
TAF
KLBF 272320Z 2800/2824 06009KT P6SM SCT070 BKN200
     FM280100 VRB04KT P6SM SCT070 BKN200
     FM281600 35007KT P6SM BKN070=

USA.gov is the U.S. government's official web portal to all federal, state and local government web resources and services.